WetterOnline ( https://www.wetteronline.de )

Wetter aktuell Schönberg

Aktuelles Wetter: Lübeck/Blankensee (15m)

6-stündlich | Neueste Meldungen
Ortszeit Temperatur Wetter
Mo, 09.12. 1:00 6.0° C wolkig
So, 08.12. 19:00 8.3° C fast wolkenlos
So, 08.12. 13:00 9.1° C Sprühregen
So, 08.12. 7:00 8.7° C bedeckt
So, 08.12. 1:00 8.3° C bedeckt
Sa, 07.12. 19:00 7.9° C Sprühregen
Sa, 07.12. 13:00 9.0° C bedeckt
Sa, 07.12. 7:00 8.8° C Sprühregen
Ortszeit Temperatur Wetter
Mo, 09.12. 1:00 6.0° C wolkig
Mo, 09.12. 0:40 5.8° C leichter Regen
Mo, 09.12. 0:30 6.9° C leichter Regen
Mo, 09.12. 0:20 6.9° C leichter Regen
Mo, 09.12. 0:10 7.1° C leichter Regen
Mo, 09.12. 0:00 7.1° C bewölkt
So, 08.12. 23:50 7.1° C bewölkt
So, 08.12. 23:30 7.0° C wolkig
So, 08.12. 23:00 6.9° C wolkig
So, 08.12. 19:50 8° C leicht bewölkt
Ortszeit Relative Feuchte Sichtweite
Mo, 09.12. 1:00 86% 40 km
So, 08.12. 19:00 79% 40 km
So, 08.12. 13:00 91% 14 km
So, 08.12. 7:00 77% 50 km
So, 08.12. 1:00 85% 35 km
Sa, 07.12. 19:00 92% 20 km
Sa, 07.12. 13:00 85% 50 km
Sa, 07.12. 7:00 92% 20 km
Ortszeit Relative Feuchte Sichtweite
Mo, 09.12. 1:00 86% 40 km
Mo, 09.12. 0:40 88% -
Mo, 09.12. 0:30 84% 22 km
Mo, 09.12. 0:20 84% -
Mo, 09.12. 0:10 81% -
Mo, 09.12. 0:00 81% 30 km
So, 08.12. 23:50 81% -
So, 08.12. 23:30 82% 29 km
So, 08.12. 23:00 82% 30 km
So, 08.12. 19:50 76% >10 km
Ortszeit Niederschlagsmenge Niederschlagsart
Mo, 09.12. 1:00 0.5 l/m2 in 6 Std. Regen
So, 08.12. 19:00 2 l/m2 in 12 Std. Regen
So, 08.12. 13:00 2 l/m2 in 6 Std. Regen
So, 08.12. 7:00 0.1 l/m2 in 12 Std. -
So, 08.12. 1:00 0.1 l/m2 in 6 Std. Regen
Sa, 07.12. 19:00 0.5 l/m2 in 12 Std. Regen
Sa, 07.12. 13:00 0.5 l/m2 in 6 Std. Regen
Sa, 07.12. 7:00 4 l/m2 in 12 Std. Regen
Ortszeit Niederschlagsmenge Niederschlagsart
Mo, 09.12. 1:00 0.4 l/m2 in 1 Std. Regen
Mo, 09.12. 0:40 keine Meldung -
Mo, 09.12. 0:30 0.2 l/m2 in 1 Std. -
Mo, 09.12. 0:20 keine Meldung -
Mo, 09.12. 0:10 keine Meldung -
Mo, 09.12. 0:00 0.0 l/m2 in 1 Std. -
So, 08.12. 23:50 keine Meldung -
So, 08.12. 23:30 0.0 l/m2 in 1 Std. -
So, 08.12. 23:00 0.0 l/m2 in 1 Std. -
So, 08.12. 19:50 keine Meldung -
Ortszeit Stärke Spitze Richtung
km/h Bft. km/h Grad Sektor
Mo, 09.12. 1:00 7 2 43 230° SW
So, 08.12. 19:00 22 4 56 250° W
So, 08.12. 13:00 18 3 50 210° SW
So, 08.12. 7:00 15 3 37 210° SW
So, 08.12. 1:00 11 2 36 230° SW
Sa, 07.12. 19:00 19 3 41 260° W
Sa, 07.12. 13:00 15 3 48 250° W
Sa, 07.12. 7:00 24 4 44 260° W
Ortszeit Stärke Spitze Richtung
km/h Bft. km/h Grad Sektor
Mo, 09.12. 1:00 7 2 36 230° SW
Mo, 09.12. 0:40 17 3 - 250° W
Mo, 09.12. 0:30 17 3 31 250° W
Mo, 09.12. 0:20 17 3 - 250° W
Mo, 09.12. 0:10 11 2 - 230° SW
Mo, 09.12. 0:00 11 2 32 220° SW
So, 08.12. 23:50 11 2 - 220° SW
So, 08.12. 23:30 13 3 33 210° SW
So, 08.12. 23:00 9 2 30 220° SW
So, 08.12. 19:50 26 4 - 240° SW
Ortszeit Untergrenze Bedeckung Gattung
total tief tief mittel hoch
Mo, 09.12. 1:00 570 m 7/8 2/8 - - -
So, 08.12. 19:00 2700 m 1/8 1/8 - - -
So, 08.12. 13:00 360 m 8/8 8/8 - - -
So, 08.12. 7:00 630 m 8/8 8/8 - - -
So, 08.12. 1:00 1200 m 8/8 8/8 - - -
Sa, 07.12. 19:00 300 m 7/8 7/8 - - -
Sa, 07.12. 13:00 450 m 8/8 8/8 - - -
Sa, 07.12. 7:00 450 m 8/8 8/8 - - -
Ortszeit Bedeckungsgrad in Achtel und Wolkenuntergrenze
Mo, 09.12. 1:00 2(570m) 7(3000m) 7(3600m)
Mo, 09.12. 0:40 3(600m) 7(1440m) 8(3000m)
Mo, 09.12. 0:30 7(810m) 7(1500m) 7(2100m)
Mo, 09.12. 0:20 7(810m) 7(1500m) 7(2100m)
Mo, 09.12. 0:10 6(900m) 7(2100m) 7(3000m)
Mo, 09.12. 0:00 5(840m) 6(1080m) 8(3600m)
So, 08.12. 23:50 5(840m) 6(1080m) 8(3600m)
So, 08.12. 23:30 2(930m) 8(3900m) 8(4200m)
So, 08.12. 23:00 4(1020m) 4(3600m) 5(4500m)
So, 08.12. 19:50 1-2(1050m)
Ortszeit Luftdruck NN (hPa) Tendenz (hPa in 3 Std.)
Mo, 09.12. 1:00 993 - 0,7
So, 08.12. 19:00 994 + 1,1
So, 08.12. 13:00 994 - 2,2
So, 08.12. 7:00 999 - 4,2
So, 08.12. 1:00 1007 - 1,1
Sa, 07.12. 19:00 1008 + 1,3
Sa, 07.12. 13:00 1005 + 1,5
Sa, 07.12. 7:00 1000 + 2,1
Ortszeit Luftdruck NN (hPa) Tendenz (hPa in 3 Std.)
Mo, 09.12. 1:00 993 - 0,7
Mo, 09.12. 0:40 993 keine Meldung
Mo, 09.12. 0:30 993 - 0,4
Mo, 09.12. 0:20 993 keine Meldung
Mo, 09.12. 0:10 993 keine Meldung
Mo, 09.12. 0:00 993 - 0,8
So, 08.12. 23:50 993 keine Meldung
So, 08.12. 23:30 993 - 1,0
So, 08.12. 23:00 993 - 0,8
So, 08.12. 19:50 993 keine Meldung
Ortszeit Schneehöhe (cm)
Mo, 09.12. 1:00 0
So, 08.12. 19:00 0
So, 08.12. 13:00 0
So, 08.12. 7:00 0
So, 08.12. 1:00 0
Sa, 07.12. 19:00 0
Sa, 07.12. 13:00 0
Sa, 07.12. 7:00 0
Ortszeit Schneehöhe (cm)
Mo, 09.12. 1:00 0
Mo, 09.12. 0:40 0
Mo, 09.12. 0:30 0
Mo, 09.12. 0:20 0
Mo, 09.12. 0:10 0
Mo, 09.12. 0:00 0
So, 08.12. 23:50 0
So, 08.12. 23:30 0
So, 08.12. 23:00 0
So, 08.12. 19:50 -
Link zu dieser Seite / Seite empfehlen

Das Wetter in ...